createdAt,value
2022-10-04T00:00:12.807Z,100182.00
2022-10-04T00:02:48.315Z,100186.00
2022-10-04T00:05:22.051Z,100181.00
2022-10-04T00:07:57.625Z,100176.00
2022-10-04T00:10:32.330Z,100176.00
2022-10-04T00:13:03.755Z,100175.00
2022-10-04T00:15:34.789Z,100180.00
2022-10-04T00:18:28.396Z,100192.00
2022-10-04T00:21:08.639Z,100178.00
2022-10-04T00:23:47.741Z,100198.00
2022-10-04T00:27:19.957Z,100193.00
2022-10-04T00:30:12.779Z,100194.00
2022-10-04T00:33:01.551Z,100185.00
2022-10-04T00:35:51.714Z,100195.00
2022-10-04T00:38:28.717Z,100191.00
2022-10-04T00:41:05.373Z,100192.00
2022-10-04T00:43:40.517Z,100182.00
2022-10-04T00:46:17.230Z,100181.00
2022-10-04T00:48:52.317Z,100185.00
2022-10-04T00:51:30.945Z,100183.00
2022-10-04T00:54:12.662Z,100180.00
2022-10-04T00:56:48.857Z,100173.00
2022-10-04T00:59:32.404Z,100170.00
2022-10-04T01:02:06.226Z,100175.00
2022-10-04T01:04:49.011Z,100177.00
2022-10-04T01:07:22.585Z,100175.00
2022-10-04T01:09:58.463Z,100158.00
2022-10-04T01:12:41.900Z,100167.00
2022-10-04T01:15:17.926Z,100175.00
2022-10-04T01:18:09.591Z,100169.00
2022-10-04T01:20:51.299Z,100173.00
2022-10-04T01:23:41.674Z,100166.00
2022-10-04T01:26:40.470Z,100174.00
2022-10-04T01:29:14.060Z,100176.00
2022-10-04T01:31:46.508Z,100171.00
2022-10-04T01:34:18.598Z,100178.00
2022-10-04T01:36:48.867Z,100178.00
2022-10-04T01:39:21.508Z,100177.00
2022-10-04T01:41:57.430Z,100175.00
2022-10-04T01:44:37.371Z,100174.00
2022-10-04T01:47:10.894Z,100167.00
2022-10-04T01:49:43.067Z,100173.00
2022-10-04T01:52:21.293Z,100170.00
2022-10-04T01:55:01.654Z,100175.00
2022-10-04T01:57:37.522Z,100165.00
2022-10-04T02:00:10.261Z,100167.00
2022-10-04T02:02:45.080Z,100156.00
2022-10-04T02:05:18.817Z,100161.00
2022-10-04T02:07:50.316Z,100127.00
2022-10-04T02:10:23.460Z,100153.00
2022-10-04T02:12:55.664Z,100154.00
2022-10-04T02:15:28.255Z,100157.00
2022-10-04T02:17:58.294Z,100151.00
2022-10-04T02:20:28.695Z,100151.00
2022-10-04T02:23:03.276Z,100158.00
2022-10-04T02:25:33.542Z,100145.00
2022-10-04T02:28:04.194Z,100145.00
2022-10-04T02:30:38.427Z,100146.00
2022-10-04T02:33:06.552Z,100143.00
2022-10-04T02:35:38.601Z,100139.00
2022-10-04T02:38:18.161Z,100150.00
2022-10-04T02:40:57.244Z,100148.00
2022-10-04T02:43:31.386Z,100151.00
2022-10-04T02:46:09.410Z,100148.00
2022-10-04T02:48:47.289Z,100143.00
2022-10-04T02:51:26.830Z,100141.00
2022-10-04T02:54:05.040Z,100131.00
2022-10-04T02:56:37.691Z,100135.00
2022-10-04T02:59:08.642Z,100132.00
2022-10-04T03:01:53.270Z,100131.00
2022-10-04T03:04:25.848Z,100139.00
2022-10-04T03:06:56.931Z,100140.00
2022-10-04T03:09:29.674Z,100148.00
2022-10-04T03:12:00.100Z,100147.00
2022-10-04T03:14:29.676Z,100144.00
2022-10-04T03:17:03.922Z,100144.00
2022-10-04T03:19:34.445Z,100143.00
2022-10-04T03:22:09.771Z,100139.00
2022-10-04T03:24:46.904Z,100141.00
2022-10-04T03:27:22.721Z,100145.00
2022-10-04T03:29:54.524Z,100142.00
2022-10-04T03:32:25.116Z,100142.00
2022-10-04T03:35:01.104Z,100137.00
2022-10-04T03:37:33.074Z,100137.00
2022-10-04T03:40:03.796Z,100139.00
2022-10-04T03:42:37.550Z,100129.00
2022-10-04T03:45:15.922Z,100127.00
2022-10-04T03:47:50.420Z,100137.00
2022-10-04T03:50:26.631Z,100131.00
2022-10-04T03:52:58.127Z,100120.00
2022-10-04T03:55:34.969Z,100122.00
2022-10-04T03:58:05.352Z,100126.00
2022-10-04T04:00:39.949Z,100127.00
2022-10-04T04:03:16.557Z,100124.00
2022-10-04T04:05:50.470Z,100128.00
2022-10-04T04:08:29.430Z,100134.00
2022-10-04T04:11:03.301Z,100135.00
2022-10-04T04:13:48.366Z,100139.00
2022-10-04T04:16:16.759Z,100134.00
2022-10-04T04:18:49.342Z,100131.00
2022-10-04T04:21:23.566Z,100137.00
2022-10-04T04:23:58.390Z,100132.00
2022-10-04T04:26:39.323Z,100102.00
2022-10-04T04:29:19.410Z,100134.00
2022-10-04T04:31:53.675Z,100132.00
2022-10-04T04:34:27.733Z,100129.00
2022-10-04T04:37:00.353Z,100136.00
2022-10-04T04:39:41.050Z,100131.00
2022-10-04T04:42:18.940Z,100128.00
2022-10-04T04:44:53.929Z,100119.00
2022-10-04T04:47:33.815Z,100126.00
2022-10-04T04:50:08.821Z,100126.00
2022-10-04T04:52:38.701Z,100126.00
2022-10-04T04:55:19.086Z,100123.00
2022-10-04T04:57:49.456Z,100129.00
2022-10-04T05:00:26.276Z,100132.00
2022-10-04T05:02:58.763Z,100129.00
2022-10-04T05:05:30.398Z,100132.00
2022-10-04T05:08:22.581Z,100136.00
2022-10-04T05:10:58.991Z,100139.00
2022-10-04T05:13:35.170Z,100140.00
2022-10-04T05:16:04.783Z,100140.00
2022-10-04T05:18:34.986Z,100139.00
2022-10-04T05:21:12.459Z,100145.00
2022-10-04T05:23:40.684Z,100150.00
2022-10-04T05:26:13.737Z,100146.00
2022-10-04T05:28:42.752Z,100152.00
2022-10-04T05:31:43.077Z,100145.00
2022-10-04T05:34:24.097Z,100142.00
2022-10-04T05:37:10.929Z,100154.00
2022-10-04T05:39:48.157Z,100158.00
2022-10-04T05:42:24.196Z,100154.00
2022-10-04T05:44:55.947Z,100156.00
2022-10-04T05:47:29.740Z,100157.00
2022-10-04T05:50:00.876Z,100158.00
2022-10-04T05:52:34.571Z,100139.00
2022-10-04T05:55:28.334Z,100164.00
2022-10-04T05:58:37.763Z,100162.00
2022-10-04T06:01:28.104Z,100155.00
2022-10-04T06:04:29.466Z,100154.00
2022-10-04T06:07:05.317Z,100158.00
2022-10-04T06:09:57.283Z,100147.00
2022-10-04T06:12:46.106Z,100157.00
2022-10-04T06:15:56.636Z,100160.00
2022-10-04T06:18:46.666Z,100170.00
2022-10-04T06:21:26.313Z,100162.00
2022-10-04T06:24:02.551Z,100172.00
2022-10-04T06:26:40.469Z,100177.00
2022-10-04T06:29:14.836Z,100167.00
2022-10-04T06:32:24.918Z,100162.00
2022-10-04T06:35:23.998Z,100170.00
2022-10-04T06:38:35.906Z,100166.00
2022-10-04T06:41:28.288Z,100185.00
2022-10-04T06:44:30.854Z,100183.00
2022-10-04T06:47:20.781Z,100169.00
2022-10-04T06:50:01.196Z,100180.00
2022-10-04T06:53:05.464Z,100190.00
2022-10-04T06:56:05.554Z,100171.00
2022-10-04T06:59:23.411Z,100177.00
2022-10-04T07:01:58.827Z,100182.00
2022-10-04T07:05:06.532Z,100167.00
2022-10-04T07:07:37.002Z,100178.00
2022-10-04T07:10:31.605Z,100166.00
2022-10-04T07:13:17.314Z,100175.00
2022-10-04T07:15:55.348Z,100184.00
2022-10-04T07:18:29.979Z,100187.00
2022-10-04T07:21:09.201Z,100194.00
2022-10-04T07:23:47.498Z,100193.00
2022-10-04T07:26:27.950Z,100200.00
2022-10-04T07:29:18.220Z,100191.00
2022-10-04T07:31:52.357Z,100195.00
2022-10-04T07:34:27.586Z,100194.00
2022-10-04T07:36:58.949Z,100209.00
2022-10-04T07:39:33.126Z,100202.00
2022-10-04T07:42:20.562Z,100204.00
2022-10-04T07:45:13.118Z,100210.00
2022-10-04T07:47:43.025Z,100203.00
2022-10-04T07:50:32.149Z,100205.00
2022-10-04T07:53:09.781Z,100211.00
2022-10-04T07:55:52.708Z,100204.00
2022-10-04T07:58:36.297Z,100205.00
2022-10-04T08:01:17.652Z,100207.00
2022-10-04T08:04:13.010Z,100204.00
2022-10-04T08:06:56.166Z,100210.00
2022-10-04T08:09:47.759Z,100218.00
2022-10-04T08:12:30.323Z,100223.00
2022-10-04T08:15:24.280Z,100223.00
2022-10-04T08:18:06.305Z,100217.00
2022-10-04T08:20:45.471Z,100229.00
2022-10-04T08:23:41.984Z,100224.00
2022-10-04T08:26:34.619Z,100224.00
2022-10-04T08:29:45.089Z,100225.00
2022-10-04T08:32:30.717Z,100224.00
2022-10-04T08:35:33.395Z,100203.00
2022-10-04T08:38:37.137Z,100233.00
2022-10-04T08:41:53.980Z,100233.00
2022-10-04T08:45:25.650Z,100231.00
2022-10-04T08:48:47.094Z,100225.00
2022-10-04T08:52:11.121Z,100223.00
2022-10-04T08:55:35.182Z,100236.00
2022-10-04T08:58:24.971Z,100207.00
2022-10-04T09:01:18.984Z,100232.00
2022-10-04T09:04:41.904Z,100234.00
2022-10-04T09:08:05.159Z,100240.00
2022-10-04T09:11:00.202Z,100234.00
2022-10-04T09:13:47.731Z,100231.00
2022-10-04T09:16:19.593Z,100237.00
2022-10-04T09:19:13.988Z,100233.00
2022-10-04T09:22:15.966Z,100221.00
2022-10-04T09:25:23.538Z,100230.00
2022-10-04T09:28:20.643Z,100221.00
2022-10-04T09:31:29.110Z,100219.00
2022-10-04T09:34:37.215Z,100230.00
2022-10-04T09:37:45.385Z,100227.00
2022-10-04T09:41:08.923Z,100229.00
2022-10-04T09:44:20.718Z,100229.00
2022-10-04T09:47:22.656Z,100237.00
2022-10-04T09:50:35.652Z,100241.00
2022-10-04T09:53:31.241Z,100237.00
2022-10-04T09:56:35.733Z,100235.00
2022-10-04T09:59:53.130Z,100231.00
2022-10-04T10:03:16.274Z,100225.00
2022-10-04T10:06:15.549Z,100225.00
2022-10-04T10:09:03.686Z,100220.00
2022-10-04T10:12:16.567Z,100221.00
2022-10-04T10:15:16.888Z,100229.00
2022-10-04T10:17:54.431Z,100224.00
2022-10-04T10:21:09.927Z,100225.00
2022-10-04T10:23:59.521Z,100238.00
2022-10-04T10:27:03.571Z,100237.00
2022-10-04T10:30:07.132Z,100232.00
2022-10-04T10:33:00.554Z,100232.00
2022-10-04T10:35:51.980Z,100231.00
2022-10-04T10:38:40.197Z,100240.00
2022-10-04T10:41:31.262Z,100233.00
2022-10-04T10:44:26.727Z,100233.00
2022-10-04T10:47:16.018Z,100233.00
2022-10-04T10:50:08.197Z,100228.00
2022-10-04T10:53:21.717Z,100228.00
2022-10-04T10:56:33.258Z,100225.00
2022-10-04T11:00:00.565Z,100212.00
2022-10-04T11:03:36.129Z,100213.00
2022-10-04T11:06:43.441Z,100215.00
2022-10-04T11:09:34.997Z,100209.00
2022-10-04T11:12:40.312Z,100213.00
2022-10-04T11:16:07.728Z,100213.00
2022-10-04T11:19:33.156Z,100212.00
2022-10-04T11:23:01.981Z,100213.00
2022-10-04T11:26:12.457Z,100200.00
2022-10-04T11:28:49.939Z,100201.00
2022-10-04T11:31:53.688Z,100202.00
2022-10-04T11:35:26.049Z,100204.00
2022-10-04T11:38:11.128Z,100218.00
2022-10-04T11:41:10.964Z,100210.00
2022-10-04T11:44:38.261Z,100217.00
2022-10-04T11:47:26.792Z,100208.00
2022-10-04T11:50:20.479Z,100201.00
2022-10-04T11:53:27.196Z,100205.00
2022-10-04T11:56:24.011Z,100198.00
2022-10-04T11:59:18.269Z,100207.00
2022-10-04T12:02:35.928Z,100201.00
2022-10-04T12:05:39.477Z,100188.00
2022-10-04T12:08:31.656Z,100197.00
2022-10-04T12:12:25.738Z,100191.00
2022-10-04T12:15:30.330Z,100179.00
2022-10-04T12:18:52.621Z,100180.00
2022-10-04T12:21:46.425Z,100175.00
2022-10-04T12:24:47.589Z,100179.00
2022-10-04T12:27:46.009Z,100174.00
2022-10-04T12:30:30.805Z,100174.00
2022-10-04T12:33:15.540Z,100179.00
2022-10-04T12:36:07.138Z,100163.00
2022-10-04T12:39:16.026Z,100167.00
2022-10-04T12:41:57.316Z,100173.00
2022-10-04T12:44:42.238Z,100172.00
2022-10-04T12:47:57.955Z,100157.00
2022-10-04T12:50:48.729Z,100168.00
2022-10-04T12:53:34.339Z,100157.00
2022-10-04T12:56:14.440Z,100160.00
2022-10-04T12:59:02.214Z,100162.00
2022-10-04T13:01:41.253Z,100163.00
2022-10-04T13:04:29.398Z,100163.00
2022-10-04T13:07:26.514Z,100159.00
2022-10-04T13:10:29.656Z,100159.00
2022-10-04T13:13:56.155Z,100168.00
2022-10-04T13:19:45.695Z,100173.00
2022-10-04T13:23:02.806Z,100158.00
2022-10-04T13:26:15.445Z,100160.00
2022-10-04T13:28:56.939Z,100148.00
2022-10-04T13:31:34.767Z,100150.00
2022-10-04T13:34:21.072Z,100145.00
2022-10-04T13:37:27.103Z,100146.00
2022-10-04T13:40:32.470Z,100141.00
2022-10-04T13:43:55.746Z,100137.00
2022-10-04T13:46:39.096Z,100141.00
2022-10-04T13:49:30.518Z,100140.00
2022-10-04T13:52:45.499Z,100145.00
2022-10-04T13:55:49.803Z,100136.00
2022-10-04T13:58:36.608Z,100139.00
2022-10-04T14:01:37.928Z,100136.00
2022-10-04T14:04:32.072Z,100143.00
2022-10-04T14:07:40.376Z,100153.00
2022-10-04T14:10:52.160Z,100145.00
2022-10-04T14:13:55.558Z,100140.00
2022-10-04T14:16:56.130Z,100132.00
2022-10-04T14:20:12.262Z,100142.00
2022-10-04T14:23:41.915Z,100133.00
2022-10-04T14:26:56.366Z,100132.00
2022-10-04T14:29:46.890Z,100136.00
2022-10-04T14:33:00.409Z,100134.00
2022-10-04T14:35:34.501Z,100126.00
2022-10-04T14:38:43.660Z,100119.00
2022-10-04T14:41:52.659Z,100120.00
2022-10-04T14:45:04.189Z,100109.00
2022-10-04T14:48:14.555Z,100114.00
2022-10-04T14:51:03.158Z,100111.00
2022-10-04T14:53:41.632Z,100108.00
2022-10-04T14:56:53.541Z,100094.00
2022-10-04T14:59:42.933Z,100104.00
2022-10-04T15:02:58.720Z,100088.00
2022-10-04T15:05:44.341Z,100081.00
2022-10-04T15:08:51.228Z,100082.00
2022-10-04T15:11:39.081Z,100075.00
2022-10-04T15:14:35.612Z,100077.00
2022-10-04T15:17:11.443Z,100074.00
2022-10-04T15:20:04.045Z,100064.00
2022-10-04T15:22:42.398Z,100056.00
2022-10-04T15:25:48.648Z,100053.00
2022-10-04T15:29:04.216Z,100048.00
2022-10-04T15:31:41.989Z,100054.00
2022-10-04T15:34:33.403Z,100052.00
2022-10-04T15:37:15.068Z,100045.00
2022-10-04T15:40:04.292Z,100039.00
2022-10-04T15:42:36.890Z,100039.00
2022-10-04T15:46:02.264Z,100031.00
2022-10-04T15:48:57.761Z,100038.00
2022-10-04T15:51:51.017Z,100036.00
2022-10-04T15:55:13.398Z,100020.00
2022-10-04T15:58:31.287Z,100000.00
2022-10-04T16:01:26.225Z,99997.00
2022-10-04T16:04:24.210Z,99993.00
2022-10-04T16:07:00.980Z,100031.00
2022-10-04T16:09:41.473Z,100032.00
2022-10-04T16:12:30.066Z,100034.00
2022-10-04T16:15:14.346Z,100025.00
2022-10-04T16:18:22.330Z,100022.00
2022-10-04T16:21:15.287Z,100025.00
2022-10-04T16:23:45.322Z,100035.00
2022-10-04T16:26:56.166Z,100037.00
2022-10-04T16:29:35.940Z,100038.00
2022-10-04T16:32:14.143Z,100037.00
2022-10-04T16:34:54.316Z,100038.00
2022-10-04T16:37:36.890Z,100047.00
2022-10-04T16:40:31.617Z,100057.00
2022-10-04T16:43:05.299Z,100062.00
2022-10-04T16:46:06.894Z,100037.00
2022-10-04T16:48:48.408Z,100065.00
2022-10-04T16:51:53.425Z,100061.00
2022-10-04T16:55:03.760Z,100057.00
2022-10-04T16:57:32.112Z,100055.00
2022-10-04T17:00:21.823Z,100044.00
2022-10-04T17:03:14.883Z,100046.00
2022-10-04T17:06:14.161Z,100043.00
2022-10-04T17:08:55.493Z,100042.00
2022-10-04T17:11:47.934Z,100041.00
2022-10-04T17:14:56.305Z,100045.00
2022-10-04T17:17:44.063Z,100050.00
2022-10-04T17:20:26.987Z,100051.00
2022-10-04T17:23:18.244Z,100046.00
2022-10-04T17:26:00.278Z,100047.00
2022-10-04T17:28:35.754Z,100049.00
2022-10-04T17:31:15.201Z,100047.00
2022-10-04T17:34:00.013Z,100059.00
2022-10-04T17:36:39.925Z,100059.00
2022-10-04T17:39:45.419Z,100060.00
2022-10-04T17:42:34.670Z,100056.00
2022-10-04T17:45:30.529Z,100065.00
2022-10-04T17:48:24.143Z,100064.00
2022-10-04T17:51:21.000Z,100070.00
2022-10-04T17:54:13.712Z,100076.00
2022-10-04T17:56:49.249Z,100047.00
2022-10-04T17:59:28.576Z,100087.00
2022-10-04T18:02:11.560Z,100081.00
2022-10-04T18:04:51.447Z,100082.00
2022-10-04T18:07:25.288Z,100083.00
2022-10-04T18:09:56.939Z,100075.00
2022-10-04T18:12:33.201Z,100080.00
2022-10-04T18:15:16.050Z,100076.00
2022-10-04T18:17:50.024Z,100061.00
2022-10-04T18:20:29.198Z,100053.00
2022-10-04T18:23:02.331Z,100062.00
2022-10-04T18:25:34.020Z,100061.00
2022-10-04T18:28:12.747Z,100058.00
2022-10-04T18:30:59.026Z,100055.00
2022-10-04T18:33:49.948Z,100062.00
2022-10-04T18:36:23.505Z,100054.00
2022-10-04T18:39:19.053Z,100057.00
2022-10-04T18:42:01.251Z,100065.00
2022-10-04T18:44:45.126Z,100075.00
2022-10-04T18:47:26.458Z,100074.00
2022-10-04T18:50:02.687Z,100073.00
2022-10-04T18:52:48.946Z,100073.00
2022-10-04T18:55:34.377Z,100073.00
2022-10-04T18:58:37.670Z,100079.00
2022-10-04T19:01:45.021Z,100066.00
2022-10-04T19:04:23.113Z,100060.00
2022-10-04T19:07:00.542Z,100066.00
2022-10-04T19:09:48.587Z,100066.00
2022-10-04T19:12:24.377Z,100067.00
2022-10-04T19:15:08.928Z,100073.00
2022-10-04T19:17:46.822Z,100067.00
2022-10-04T19:20:23.469Z,100068.00
2022-10-04T19:23:12.212Z,100079.00
2022-10-04T19:26:09.857Z,100080.00
2022-10-04T19:28:38.205Z,100094.00
2022-10-04T19:31:19.512Z,100083.00
2022-10-04T19:33:53.199Z,100092.00
2022-10-04T19:36:46.316Z,100097.00
2022-10-04T19:39:36.449Z,100098.00
2022-10-04T19:42:12.075Z,100054.00
2022-10-04T19:45:03.643Z,100097.00
2022-10-04T19:47:51.026Z,100063.00
2022-10-04T19:50:25.668Z,100116.00
2022-10-04T19:52:59.453Z,100109.00
2022-10-04T19:55:46.178Z,100122.00
2022-10-04T19:58:32.002Z,100117.00
2022-10-04T20:01:00.467Z,100122.00
2022-10-04T20:03:28.487Z,100115.00
2022-10-04T20:05:57.419Z,100117.00
2022-10-04T20:09:01.554Z,100121.00
2022-10-04T20:11:51.942Z,100126.00
2022-10-04T20:14:48.350Z,100119.00
2022-10-04T20:17:33.404Z,100131.00
2022-10-04T20:20:02.276Z,100128.00
2022-10-04T20:22:56.174Z,100125.00
2022-10-04T20:26:03.086Z,100090.00
2022-10-04T20:28:45.181Z,100115.00
2022-10-04T20:31:54.505Z,100123.00
2022-10-04T20:34:35.406Z,100111.00
2022-10-04T20:37:05.648Z,100125.00
2022-10-04T20:39:57.627Z,100126.00
2022-10-04T20:42:37.165Z,100127.00
2022-10-04T20:45:27.811Z,100132.00
2022-10-04T20:47:58.137Z,100130.00
2022-10-04T20:50:38.783Z,100137.00
2022-10-04T20:53:15.876Z,100132.00
2022-10-04T20:55:45.925Z,100135.00
2022-10-04T20:58:32.884Z,100135.00
2022-10-04T21:01:16.449Z,100119.00
2022-10-04T21:03:45.890Z,100134.00
2022-10-04T21:06:13.986Z,100133.00
2022-10-04T21:08:42.137Z,100109.00
2022-10-04T21:11:20.200Z,100147.00
2022-10-04T21:13:56.392Z,100135.00
2022-10-04T21:16:44.243Z,100138.00
2022-10-04T21:19:47.271Z,100140.00
2022-10-04T21:22:38.737Z,100130.00
2022-10-04T21:25:33.436Z,100132.00
2022-10-04T21:28:35.949Z,100129.00
2022-10-04T21:31:05.281Z,100138.00
2022-10-04T21:33:35.219Z,100144.00
2022-10-04T21:36:06.069Z,100144.00
2022-10-04T21:38:34.100Z,100140.00
2022-10-04T21:41:02.205Z,100139.00
2022-10-04T21:43:30.330Z,100132.00
2022-10-04T21:45:58.721Z,100131.00
2022-10-04T21:48:27.677Z,100134.00
2022-10-04T21:50:56.664Z,100127.00
2022-10-04T21:53:26.046Z,100131.00
2022-10-04T21:55:54.054Z,100129.00
2022-10-04T21:58:22.061Z,100126.00
2022-10-04T22:00:50.582Z,100126.00
2022-10-04T22:03:18.637Z,100128.00
2022-10-04T22:05:46.680Z,100136.00
2022-10-04T22:08:14.687Z,100143.00
2022-10-04T22:10:45.555Z,100146.00
2022-10-04T22:13:13.714Z,100140.00
2022-10-04T22:15:42.049Z,100145.00
2022-10-04T22:18:10.268Z,100139.00
2022-10-04T22:20:38.777Z,100131.00
2022-10-04T22:23:17.528Z,100116.00
2022-10-04T22:25:47.061Z,100080.00
2022-10-04T22:28:22.821Z,100092.00
2022-10-04T22:30:52.225Z,100068.00
2022-10-04T22:33:35.019Z,100057.00
2022-10-04T22:36:16.033Z,100058.00
2022-10-04T22:38:50.905Z,100057.00
2022-10-04T22:41:21.038Z,100050.00
2022-10-04T22:43:51.185Z,100039.00
2022-10-04T22:46:20.989Z,100053.00
2022-10-04T22:48:50.666Z,100049.00
2022-10-04T22:51:18.704Z,100047.00
2022-10-04T22:53:48.958Z,100049.00
2022-10-04T22:56:17.674Z,100044.00
2022-10-04T22:58:47.154Z,100044.00
2022-10-04T23:01:18.342Z,100040.00
2022-10-04T23:03:49.118Z,100039.00
2022-10-04T23:06:17.288Z,100034.00
2022-10-04T23:08:45.785Z,100032.00
2022-10-04T23:11:13.860Z,100029.00
2022-10-04T23:13:41.898Z,100023.00
2022-10-04T23:16:18.987Z,100023.00
2022-10-04T23:18:47.078Z,100015.00
2022-10-04T23:21:23.861Z,100007.00
2022-10-04T23:23:54.200Z,100004.00
2022-10-04T23:26:27.673Z,100002.00
2022-10-04T23:28:55.717Z,99993.00
2022-10-04T23:31:27.749Z,99994.00
2022-10-04T23:33:58.042Z,99981.00
2022-10-04T23:36:26.380Z,99989.00
2022-10-04T23:38:59.941Z,99988.00
2022-10-04T23:41:28.093Z,99977.00
2022-10-04T23:43:56.091Z,99980.00
2022-10-04T23:46:25.786Z,99984.00
2022-10-04T23:48:53.889Z,99982.00
2022-10-04T23:51:22.477Z,99986.00
2022-10-04T23:53:51.501Z,99971.00
2022-10-04T23:56:24.311Z,99971.00
2022-10-04T23:58:57.072Z,99968.00
